Portada
METAR-TAF:

METAR-TAF

Aeroports :

Keene, Nova Hampshire, Estats Units d'Amèrica

latitud: 42-54N, longitud: 072-16W, altitud: 149 m

Observació

L'informe es va fer fa 5 minuts, a les 21:56 UTC
Vent 6 kt amb direcció variable
Temperatura 22°C
Humitat 27%
Pressió 1023 hPa
Visibilitat: 16.1 km
Cel clar

METAR: KEEN 242156Z AUTO VRB06KT 10SM CLR 22/02 A3022 RMK AO2 SLP238 T02170022 $

Hora: 18:01 (22:01 UTC)


TAF: manca

Observacions i pronòstics meteorològics de més de 4000 aeroports (METAR i TAF).

Les estacions disponibles són els punts grocs i vermells al mapa.

Posi el ratolí al punt desitjat per veure el nom de l'estació.

Feu clic per veure les observacions i els pronòstics meteorològics.

Per canviar el mapa: feu clic els botons verds amb una creu de color negre per apropar; al botó verd amb un guió per allunyar la imatge; o en les fletxes verdes per a mapes adjacents.


METAR-TAF: